CET,Max TemperatureF,Mean TemperatureF,Min TemperatureF,Max Dew PointF,MeanDew PointF,Min DewpointF,Max Humidity, Mean Humidity, Min Humidity, Max Sea Level PressureIn, Mean Sea Level PressureIn, Min Sea Level PressureIn, Max VisibilityMiles, Mean VisibilityMiles, Min VisibilityMiles, Max Wind SpeedMPH, Mean Wind SpeedMPH, Max Gust SpeedMPH,PrecipitationIn, CloudCover, Events, WindDirDegrees
2011-11-1,69,58,48,55,51,48,100,77,46,30.12,30.09,30.01,5,4,2,6,3,,0.00,,,350
2011-11-2,69,56,42,54,51,43,100,80,49,30.09,30.07,30.04,6,3,0,5,2,,0.00,,Fog,295
2011-11-3,69,60,50,55,52,50,100,77,49,30.09,30.04,30.01,6,5,4,7,4,,0.00,3,,177
2011-11-4,69,61,53,57,55,52,100,72,60,30.04,29.99,29.95,6,6,3,13,5,,0.00,2,,135
2011-11-5,66,63,60,55,54,52,82,67,60,29.95,29.87,29.83,6,6,4,17,13,,0.00,5,Rain,113
2011-11-6,68,60,51,55,52,50,100,81,60,29.95,29.88,29.83,6,6,2,21,7,33,0.00,4,Rain-Thunderstorm,114
2011-11-7,66,62,57,57,55,52,94,79,64,30.12,30.06,29.89,6,6,3,18,13,,0.00,5,Rain-Thunderstorm,113
2011-11-8,68,62,55,55,53,50,100,82,56,30.15,30.12,30.09,6,5,2,14,7,,0.00,4,Rain-Thunderstorm,133
2011-11-9,71,58,46,55,52,46,100,82,46,30.15,30.12,30.09,,,,5,2,,0.00,,,180
2011-11-10,68,55,42,64,51,43,100,84,52,30.09,30.04,30.01,3,2,0,6,2,,0.00,,Fog,330
2011-11-11,68,55,42,52,50,43,100,81,52,30.24,30.13,30.09,5,4,4,5,2,,0.00,,Fog,10
2011-11-12,66,52,39,50,44,39,100,72,46,30.33,30.30,30.27,5,3,0,8,3,,0.00,,Fog,2
2011-11-13,62,52,42,46,40,36,100,68,37,30.42,30.37,30.33,5,4,4,6,3,,0.00,,,3
2011-11-14,60,48,35,45,41,36,100,76,51,30.30,30.23,30.18,5,4,3,16,3,,0.00,,,180
2011-11-15,62,48,33,45,40,34,100,78,45,30.12,30.08,30.04,5,3,2,5,3,,0.00,,,350
2011-11-16,60,46,33,45,40,34,100,77,45,30.15,30.11,30.06,5,4,4,6,3,,0.00,1,Fog,355
2011-11-17,64,50,35,45,40,36,100,77,37,30.24,30.22,30.18,5,5,4,5,3,,0.00,,,330
2011-11-18,62,48,35,45,40,36,100,79,37,30.30,30.26,30.21,5,4,1,4,2,,0.00,,,-1
2011-11-19,59,46,33,45,41,34,100,87,55,30.27,30.22,30.18,5,3,0,6,3,,0.00,,Fog,343
2011-11-20,60,46,33,45,40,34,100,80,45,30.24,30.19,30.15,5,3,2,5,3,,0.00,1,Fog,344
2011-11-21,62,48,35,45,41,36,100,73,42,30.15,30.09,30.04,6,4,3,7,4,,0.00,2,,14
2011-11-22,55,52,48,54,52,46,100,96,88,30.01,29.96,29.92,5,4,2,7,4,,0.00,5,Rain,20
2011-11-23,62,52,42,55,51,43,100,90,72,30.12,30.04,30.01,6,4,3,6,2,,0.00,3,,60
2011-11-24,62,54,46,54,49,45,100,83,63,30.30,30.25,30.21,6,5,3,7,3,,0.00,3,Fog,10
2011-11-25,66,54,42,50,48,41,100,81,56,30.33,30.30,30.27,6,4,3,5,2,,0.00,1,Fog,20
2011-11-26,64,52,39,52,47,39,100,87,59,30.39,30.33,30.30,6,4,3,5,2,,0.00,,,340
2011-11-27,66,50,35,50,44,36,100,88,49,30.42,30.35,30.30,5,3,0,5,2,,0.00,,Fog,355
2011-11-28,64,50,35,50,45,36,100,89,59,30.33,30.29,30.24,5,2,0,5,3,,0.00,,Fog,290
2011-11-29,62,50,37,48,44,37,100,85,55,30.27,30.25,30.21,5,3,1,4,2,,0.00,,,-1
2011-11-30,62,48,35,46,43,36,100,84,55,30.39,30.34,30.30,5,3,2,5,2,,0.00,,,180